• Join FlightAware (Why Join?)
  • Login
  • US Flag 
07:01PM EDT


 

Airport Tracker/Info


-or-


 

Live Flight TrackerFlight Track Log ✈ EJA669 ✈ 18-May-2013 ✈ KOKC - KPIT

Flight Track Log - Related Links

Times and Time Zones

All times are in EDT time to prevent confusion due to time zone crossing. See the EJA669 flight status page for this flight to view local times or setup timezone preferences in your user account.

Time Position Orientation Groundspeed Altitude Reporting Facility
EDT Latitude Longitude Course Direction KTS MPH feet Rate Location/Type
04:56PM 35.3394 -97.5483 139° Southeast 244 281 5,000  Level Fort Worth Center
04:58PM 35.4414 -97.3425 59° Northeast 317 365 9,300 1,800 Climbing Kansas City Center
04:59PM 35.4906 -97.2389 60° Northeast 344 396 11,000 1,680 Climbing Kansas City Center
05:00PM 35.5436 -97.1342 58° Northeast 355 409 12,800 1,680 Climbing Kansas City Center
05:01PM 35.5969 -97.0264 59° Northeast 365 420 14,500 1,620 Climbing Kansas City Center
05:02PM 35.6506 -96.9153 59° Northeast 375 432 16,200 1,500 Climbing Kansas City Center
05:03PM 35.7069 -96.8017 59° Northeast 385 443 17,700 1,500 Climbing Kansas City Center
05:05PM 35.7647 -96.6836 59° Northeast 397 457 19,300 1,620 Climbing Kansas City Center
05:06PM 35.8356 -96.5378 59° Northeast 410 472 21,100 1,560 Climbing Kansas City Center
05:07PM 35.8939 -96.4161 59° Northeast 413 475 22,600 1,440 Climbing Kansas City Center
05:08PM 35.9708 -96.3139 47° Northeast 412 474 24,100 1,440 Climbing Kansas City Center
05:09PM 36.0594 -96.2217 40° Northeast 413 475 25,600 1,440 Climbing Kansas City Center
05:10PM 36.1472 -96.1289 40° Northeast 414 476 27,100 1,500 Climbing Kansas City Center
05:11PM 36.2342 -96.0353 41° Northeast 414 476 28,700 1,500 Climbing Kansas City Center
05:12PM 36.2889 -95.9111 61° Northeast 413 475 30,200 1,440 Climbing Kansas City Center
05:13PM 36.3422 -95.7869 62° Northeast 409 471 31,700 1,500 Climbing Kansas City Center
05:14PM 36.4047 -95.6406 62° Northeast 409 471 33,400 1,500 Climbing Kansas City Center
05:15PM 36.4575 -95.5142 63° Northeast 412 474 34,900 1,200 Climbing Kansas City Center
05:16PM 36.5117 -95.3867 62° Northeast 414 476 36,000 1,020 Climbing Kansas City Center
05:17PM 36.5675 -95.2544 62° Northeast 427 491 37,000 720 Climbing Kansas City Center
05:18PM 36.6317 -95.0994 63° Northeast 445 512 37,500 720 Climbing Kansas City Center
05:19PM 36.6906 -94.9575 63° Northeast 454 522 38,500 960 Climbing Kansas City Center
05:20PM 36.7486 -94.8164 63° Northeast 456 525 39,600 1,020 Climbing Kansas City Center
05:21PM 36.8056 -94.6789 63° Northeast 452 520 40,700 660 Climbing Kansas City Center
05:22PM 36.8617 -94.5408 63° Northeast 448 516 41,000 120 Climbing Kansas City Center
05:23PM 36.9200 -94.4011 62° Northeast 451 519 41,000  Level Kansas City Center
05:24PM 36.9886 -94.2328 63° Northeast 452 520 41,000  Level Kansas City Center
05:25PM 37.0436 -94.0939 64° Northeast 449 517 41,000  Level Kansas City Center
05:26PM 37.1000 -93.9553 63° Northeast 447 514 41,000  Level Kansas City Center
05:27PM 37.1589 -93.8122 63° Northeast 444 511 41,000  Level Kansas City Center
05:28PM 37.2136 -93.6742 64° Northeast 442 509 41,000  Level Kansas City Center
05:29PM 37.2697 -93.5358 63° Northeast 444 511 41,000  Level Kansas City Center
05:30PM 37.3267 -93.3975 63° Northeast 444 511 41,000  Level Kansas City Center
05:31PM 37.3811 -93.2575 64° Northeast 445 512 41,000  Level Kansas City Center
05:32PM 37.4361 -93.1181 64° Northeast 446 513 41,000  Level Kansas City Center
05:33PM 37.4917 -92.9797 63° Northeast 444 511 41,000  Level Kansas City Center
05:34PM 37.5569 -92.8131 64° Northeast 443 510 41,000  Level Kansas City Center
05:35PM 37.6097 -92.6728 65° Northeast 445 512 41,000  Level Kansas City Center
05:36PM 37.6628 -92.5356 64° Northeast 440 506 41,000  Level Kansas City Center
05:37PM 37.7206 -92.3869 64° Northeast 440 506 41,000  Level Kansas City Center
05:38PM 37.7719 -92.2492 65° Northeast 438 504 41,000  Level Kansas City Center
05:39PM 37.8256 -92.1111 64° Northeast 438 504 41,000  Level Kansas City Center
05:41PM 37.8831 -91.9597 64° Northeast 440 506 41,000  Level Kansas City Center
05:42PM 37.9353 -91.8222 64° Northeast 436 502 41,000  Level Kansas City Center
05:43PM 37.9883 -91.6850 64° Northeast 436 502 41,000  Level Kansas City Center
05:44PM 38.0400 -91.5458 65° Northeast 436 502 41,000  Level Kansas City Center
05:45PM 38.0928 -91.4067 64° Northeast 438 504 41,000  Level Kansas City Center
05:46PM 38.1447 -91.2653 65° Northeast 440 506 41,000  Level Kansas City Center
05:47PM 38.2025 -91.1089 65° Northeast 443 510 41,000  Level Kansas City Center
05:48PM 38.2539 -90.9672 65° Northeast 443 510 41,000  Level Kansas City Center
05:50PM 38.3313 -90.7284 67° East  Level FlightAware Approximate
05:51PM 38.4136 -90.5267 67° East 440 506 41,000  Level Kansas City Center
05:52PM 38.4639 -90.3828 66° East 441 507 41,000  Level Kansas City Center
05:53PM 38.5178 -90.2328 65° Northeast 444 511 41,000  Level Kansas City Center
05:54PM 38.5692 -90.0939 65° Northeast 437 503 41,000  Level Kansas City Center
05:55PM 38.6203 -89.9517 65° Northeast 441 507 41,000  Level Kansas City Center
05:56PM 38.6697 -89.8097 66° East 443 510 41,000  Level Kansas City Center
05:57PM 38.7303 -89.6417 65° Northeast 436 502 41,000  Level Kansas City Center
05:58PM 38.7781 -89.5047 66° East 425 489 41,000  Level Kansas City Center
05:59PM 38.8294 -89.3550 66° East 426 490 41,000  Level Kansas City Center
06:00PM 38.8783 -89.2147 66° East 431 496 41,000  Level Kansas City Center
06:01PM 38.9269 -89.0725 66° East 434 499 41,000  Level Kansas City Center
06:02PM 38.9714 -88.9439 66° East 435 501 41,000  Level Kansas City Center
06:03PM 39.0219 -88.8028 65° Northeast 436 502 41,000  Level Kansas City Center
06:04PM 39.0783 -88.6356 66° East 428 493 41,000  Level Kansas City Center
06:05PM 39.1222 -88.5061 66° East 423 487 41,000  Level Kansas City Center
06:06PM 39.1667 -88.3711 67° East 413 475 41,000  Level Kansas City Center
06:07PM 39.2119 -88.2333 67° East 413 475 41,000  Level Kansas City Center
06:08PM 39.2581 -88.0950 67° East 415 478 41,000  Level Kansas City Center
06:09PM 39.3022 -87.9603 67° East 410 472 41,000  Level Kansas City Center
06:10PM 39.3358 -87.7822 76° East 422 486 41,000  Level Kansas City Center
06:11PM 39.3600 -87.6347 78° East 419 482 41,000  Level Kansas City Center
06:12PM 39.3878 -87.4706 78° East 424 488 41,000  Level Indianapolis Center
06:14PM 39.4131 -87.3236 77° East 422 486 41,000  Level Indianapolis Center
06:15PM 39.4375 -87.1772 78° East 419 482 41,000  Level Indianapolis Center
06:16PM 39.4606 -87.0325 78° East 413 475 41,000  Level Indianapolis Center
06:17PM 39.4844 -86.8889 78° East 411 473 41,000  Level Indianapolis Center
06:18PM 39.5075 -86.7458 78° East 408 470 41,000  Level Indianapolis Center
06:19PM 39.5347 -86.5747 78° East 408 470 41,000  Level Indianapolis Center
06:20PM 39.5569 -86.4339 78° East 403 464 41,000  Level Indianapolis Center
06:21PM 39.5783 -86.2939 79° East 405 466 41,000  Level Indianapolis Center
06:22PM 39.5997 -86.1533 79° East 406 467 41,000  Level Indianapolis Center
06:23PM 39.6222 -86.0133 78° East 404 465 41,000  Level Indianapolis Center
06:24PM 39.6444 -85.8733 78° East 402 463 41,000  Level Indianapolis Center
06:25PM 39.6697 -85.7028 79° East 403 464 41,000  Level Indianapolis Center
06:26PM 39.6925 -85.5606 78° East 405 466 41,000  Level Indianapolis Center
06:27PM 39.7136 -85.4172 79° East 405 466 41,000  Level Indianapolis Center
06:28PM 39.7350 -85.2725 79° East 410 472 41,000  Level Indianapolis Center
06:29PM 39.7564 -85.1267 79° East 412 474 41,000  Level Indianapolis Center
06:30PM 39.7775 -84.9806 79° East 414 476 41,000 -300 Level Indianapolis Center
06:31PM 39.8014 -84.8175 79° East 411 473 40,400 -1,140 Descending Indianapolis Center
06:32PM 39.8214 -84.6706 80° East 408 470 38,700 -1,920 Descending Indianapolis Center
06:33PM 39.8428 -84.5250 79° East 407 468 36,600 -2,100 Descending Indianapolis Center
06:34PM 39.8631 -84.3789 80° East 408 470 34,400 -1,860 Descending Indianapolis Center
06:35PM 39.8831 -84.2303 80° East 412 474 32,900 -1,440 Descending Indianapolis Center
06:36PM 39.9044 -84.0803 79° East 416 479 31,500 -960 Descending Indianapolis Center
06:37PM 39.9253 -83.9256 80° East 426 490 31,000 -300 Descending Indianapolis Center
06:38PM 39.9464 -83.7708 80° East 428 493 31,000  Level Indianapolis Center
06:39PM 39.9672 -83.6147 80° East 429 494 31,000  Level Indianapolis Center
06:40PM 39.9886 -83.4544 80° East 434 499 31,000  Level Indianapolis Center
06:41PM 40.0100 -83.2944 80° East 437 503 31,000  Level Indianapolis Center
06:42PM 40.0292 -83.1383 81° East 433 498 31,000  Level Indianapolis Center
06:43PM 40.0486 -82.9833 81° East 428 493 31,000  Level Indianapolis Center
06:44PM 40.0686 -82.8272 80° East 431 496 31,000 -600 Level Indianapolis Center
06:45PM 40.0903 -82.6486 81° East 422 486 29,800 -1,380 Descending Indianapolis Center
06:46PM 40.1100 -82.4892 81° East 438 504 28,200 -1,500 Descending Indianapolis Center
06:47PM 40.1297 -82.3269 81° East 448 516 26,800 -1,200 Descending Indianapolis Center
06:48PM 40.1492 -82.1669 81° East 444 511 25,800 -1,020 Descending Indianapolis Center
06:49PM 40.1681 -82.0081 81° East 442 509 24,800 -1,020 Descending Indianapolis Center
06:50PM 40.1858 -81.8506 82° East 436 502 23,800 -1,200 Descending Indianapolis Center
06:51PM 40.2033 -81.7019 81° East 427 491 22,400 -1,800 Descending Indianapolis Center
06:52PM 40.2208 -81.5511 81° East 419 482 20,200 -1,680 Descending Indianapolis Center
06:53PM 40.2072 -81.4081 97° East 404 465 19,000 -840 Descending Indianapolis Center
06:54PM 40.1553 -81.2478 113° Southeast 411 473 18,500 -840 Descending Indianapolis Center
06:56PM 40.1128 -81.1164 113° Southeast 393 452 17,400 -1,800 Descending Indianapolis Center
06:57PM 40.0958 -80.9631 98° East 383 441 14,700 -2,280 Descending Cleveland Center
06:58PM 40.1169 -80.8328 78° East 353 406 12,600 -2,100 Descending Cleveland Center
06:59PM 40.1858 -80.7381 46° Northeast 328 377 10,500 -1,620 Descending Cleveland Center
07:00PM 40.2528 -80.6647 40° Northeast 323 372 9,400 -1,620 Descending Cleveland Center
07:01PM 40.3153 -80.5967 40° Northeast 295 339 7,300 -2,040 Descending Cleveland Center
07:02PM 40.3714 -80.5342 40° Northeast 283 326 5,400 -1,800 Descending Cleveland Center
07:03PM 40.4256 -80.4739 40° Northeast 265 305 3,800 -1,140 Descending Cleveland Center
07:04PM 40.4756 -80.4192 40° Northeast 243 280 3,200 -480 Descending Cleveland Center
07:05PM 40.5069 -80.3700 50° Northeast 220 253 2,900 -660 Descending Cleveland Center
07:06PM 40.5047 -80.3100 93° East 174 200 1,900 -1,020 Descending Cleveland Center
07:08PM 40.4915 -80.2329 270° West  Level Estimated
07:15PM 40.4915 -80.2329 270° West  Level Estimated